Beaver Island, MI

2:45 AM EDT on May 24, 2018 (GMT -0400)
Beaver Island

Weather History for KSJX - March, 2014

Change the Weather History Date:

Wednesday, March 12, 2014

  Actual Average Record
Temperature  
Mean Temperature 14 °F -  
Max Temperature 26 °F 34 °F 60 °F (1990)
Min Temperature 1 °F 16 °F 0 °F (1960)
Degree Days  
Heating Degree Days 51    
Moisture  
Dew Point 0 °F    
Average Humidity 63    
Maximum Humidity 80    
Minimum Humidity 44    
Precipitation  
Precipitation 0.00 in - - ()
Sea Level Pressure  
Sea Level Pressure 30.00 in    
Wind  
Wind Speed 10 mph (North)    
Max Wind Speed 17 mph    
Max Gust Speed 28 mph    
Visibility 10 miles    
Events      
Averages and records for this station are not official NWS values.
T = Trace of Precipitation, MM = Missing Value Source: NWS Daily Summary

Daily Weather History Graph

Daily Weather History Graph

Search for Another Location

Airport or City:

Astronomy

Mar. 12, 2014 Rise Set
Actual Time 8:00 AM EDT 7:44 PM EDT
Civil Twilight 7:30 AM EDT 8:13 PM EDT
Nautical Twilight 6:56 AM EDT 8:48 PM EDT
Astronomical Twilight 6:21 AM EDT 9:23 PM EDT
Moon 4:05 PM EDT (3/12) 5:41 AM EDT (3/12)
Length of Visible Light 12h 42m
Length of Day
11h 43m
Waxing Gibbous, 85% of the Moon is Illuminated
Mar 12
Waxing Gibbous
Mar 16
Full
Mar 23
Last Quarter
Mar 30
New
Apr 7
First Quarter

Hourly Weather History & Observations

Time (EDT) Temp. Windchill Dew Point Humidity Pressure Visibility Wind Dir Wind Speed Gust Speed Precip Events Conditions
12:16 AM 26.6 °F 20.0 °F 15.8 °F 64% 29.89 in 10.0 mi North 5.8 mph - N/A   Clear
12:35 AM 26.2 °F 17.8 °F 16.7 °F 67% 29.89 in 10.0 mi NNW 8.1 mph - N/A   Clear
12:56 AM 25.7 °F 16.4 °F 17.6 °F 71% 29.89 in 10.0 mi NNW 9.2 mph - N/A   Clear
1:16 AM 25.2 °F 15.7 °F 18.1 °F 75% 29.89 in 10.0 mi North 9.2 mph - N/A   Clear
1:35 AM 24.6 °F 14.4 °F 18.3 °F 77% 29.89 in 10.0 mi NNW 10.4 mph 17.3 mph N/A   Clear
1:56 AM 23.5 °F 14.5 °F 18.0 °F 79% 29.89 in 10.0 mi NNW 8.1 mph - N/A   Scattered Clouds
2:16 AM 23.0 °F 14.7 °F 17.6 °F 80% 29.89 in 10.0 mi North 6.9 mph 18.4 mph N/A   Mostly Cloudy
2:35 AM 21.9 °F 11.0 °F 16.5 °F 80% 29.89 in 10.0 mi North 10.4 mph 18.4 mph N/A   Overcast
2:56 AM 21.2 °F 8.9 °F 15.6 °F 79% 29.89 in 10.0 mi NNW 12.7 mph 20.7 mph N/A   Overcast
3:15 AM 20.1 °F 8.1 °F 14.0 °F 77% 29.89 in 10.0 mi NNW 11.5 mph 18.4 mph N/A   Overcast
3:35 AM 18.7 °F 5.7 °F 12.6 °F 77% 29.90 in 10.0 mi NNW 12.7 mph 18.4 mph N/A   Scattered Clouds
3:56 AM 16.7 °F 4.5 °F 9.0 °F 72% 29.91 in 10.0 mi North 10.4 mph 20.7 mph N/A   Clear
4:15 AM 15.6 °F 2.5 °F 7.7 °F 71% 29.91 in 10.0 mi North 11.5 mph 20.7 mph N/A   Clear
4:36 AM 14.4 °F 1.6 °F 6.6 °F 71% 29.91 in 10.0 mi North 10.4 mph 19.6 mph N/A   Clear
4:56 AM 13.3 °F -1.1 °F 6.1 °F 73% 29.90 in 10.0 mi North 12.7 mph 20.7 mph N/A   Clear
5:15 AM 12.4 °F -0.8 °F 5.2 °F 73% 29.90 in 10.0 mi North 10.4 mph 16.1 mph N/A   Clear
5:36 AM 11.5 °F -2.7 °F 4.5 °F 73% 29.92 in 10.0 mi North 11.5 mph 23.0 mph N/A   Clear
5:55 AM 10.4 °F -3.3 °F 3.6 °F 74% 29.91 in 10.0 mi North 10.4 mph 16.1 mph N/A   Clear
6:15 AM 9.1 °F -4.9 °F 2.3 °F 74% 29.93 in 10.0 mi North 10.4 mph 21.9 mph N/A   Clear
6:36 AM 8.2 °F -7.5 °F 1.8 °F 75% 29.94 in 10.0 mi North 12.7 mph 23.0 mph N/A   Clear
6:55 AM 7.7 °F -8.2 °F 1.2 °F 75% 29.95 in 10.0 mi North 12.7 mph 23.0 mph N/A   Clear
7:16 AM 7.3 °F -7.1 °F 0.5 °F 74% 29.96 in 10.0 mi North 10.4 mph 19.6 mph N/A   Clear
7:36 AM 6.8 °F -7.8 °F -0.4 °F 72% 29.98 in 10.0 mi North 10.4 mph 19.6 mph N/A   Clear
7:55 AM 6.3 °F -10.0 °F -4.0 °F 63% 29.98 in 10.0 mi North 12.7 mph 20.7 mph N/A   Clear
8:16 AM 5.4 °F -11.8 °F -5.4 °F 61% 29.98 in 10.0 mi North 13.8 mph 23.0 mph N/A   Clear
8:19 AM 5.2 °F -11.4 °F -5.6 °F 61% 29.99 in 10.0 mi North 12.7 mph 19.6 mph N/A   Clear
8:56 AM 4.6 °F -12.8 °F -6.0 °F 62% 30.00 in 10.0 mi NNE 13.8 mph 20.7 mph N/A   Clear
9:15 AM 4.6 °F -12.0 °F -5.8 °F 62% 30.00 in 10.0 mi North 12.7 mph 27.6 mph N/A   Clear
9:36 AM 4.5 °F -13.7 °F -5.6 °F 63% 30.00 in 10.0 mi North 15.0 mph 19.6 mph N/A   Clear
9:55 AM 4.1 °F -13.4 °F -5.8 °F 64% 30.01 in 10.0 mi North 13.8 mph 18.4 mph N/A   Clear
10:15 AM 4.5 °F -13.7 °F -5.8 °F 63% 30.01 in 10.0 mi NNE 15.0 mph 21.9 mph N/A   Clear
10:36 AM 4.8 °F -14.4 °F -5.6 °F 62% 30.01 in 10.0 mi North 17.3 mph 25.3 mph N/A   Clear
10:55 AM 5.0 °F -13.6 °F -6.3 °F 60% 30.02 in 10.0 mi NNE 16.1 mph 24.2 mph N/A   Clear
11:16 AM 5.7 °F -12.6 °F -6.5 °F 57% 30.02 in 10.0 mi North 16.1 mph 24.2 mph N/A   Clear
11:36 AM 6.6 °F -10.2 °F -6.3 °F 55% 30.02 in 10.0 mi NNE 13.8 mph 21.9 mph N/A   Clear
11:55 AM 6.8 °F -10.7 °F -6.7 °F 54% 30.02 in 10.0 mi North 15.0 mph 23.0 mph N/A   Clear
12:16 PM 7.5 °F -9.1 °F -6.3 °F 53% 30.02 in 10.0 mi North 13.8 mph 19.6 mph N/A   Clear
12:35 PM 8.1 °F -7.0 °F -6.0 °F 53% 30.02 in 10.0 mi North 11.5 mph - N/A   Clear
12:55 PM 8.8 °F -6.8 °F -5.8 °F 52% 30.02 in 10.0 mi North 12.7 mph 19.6 mph N/A   Clear
1:16 PM 9.5 °F -7.2 °F -5.6 °F 50% 30.01 in 10.0 mi NNE 15.0 mph 21.9 mph N/A   Clear
1:35 PM 10.6 °F -4.5 °F -4.7 °F 50% 30.01 in 10.0 mi North 12.7 mph 19.6 mph N/A   Clear
1:56 PM 10.6 °F -3.8 °F -4.0 °F 52% 30.01 in 10.0 mi NW 11.5 mph 17.3 mph N/A   Clear
2:16 PM 10.8 °F -4.3 °F -3.6 °F 52% 30.00 in 10.0 mi NW 12.7 mph 21.9 mph N/A   Clear
2:35 PM 10.4 °F -5.4 °F -3.8 °F 53% 30.00 in 10.0 mi NNW 13.8 mph 24.2 mph N/A   Clear
2:56 PM 11.3 °F -2.9 °F -3.8 °F 51% 30.00 in 10.0 mi NNW 11.5 mph 19.6 mph N/A   Clear
3:15 PM 11.3 °F -2.9 °F -4.9 °F 48% 30.00 in 10.0 mi NNW 11.5 mph 20.7 mph N/A   Clear
3:35 PM 11.3 °F -2.9 °F -6.0 °F 46% 30.00 in 10.0 mi NNE 11.5 mph 20.7 mph N/A   Clear
3:56 PM 11.8 °F -4.2 °F -6.3 °F 44% 30.00 in 10.0 mi North 15.0 mph 18.4 mph N/A   Clear
4:15 PM 11.7 °F -2.5 °F -5.8 °F 46% 30.00 in 10.0 mi North 11.5 mph 19.6 mph N/A   Clear
4:36 PM 11.8 °F -3.6 °F -5.3 °F 46% 30.00 in 10.0 mi North 13.8 mph 21.9 mph N/A   Clear
4:56 PM 11.8 °F -2.3 °F -4.9 °F 47% 30.01 in 10.0 mi North 11.5 mph 20.7 mph N/A   Clear
5:15 PM 11.8 °F -0.7 °F -3.6 °F 50% 30.02 in 10.0 mi NNW 9.2 mph 17.3 mph N/A   Clear
5:36 PM 11.1 °F -4.5 °F -4.4 °F 50% 30.02 in 10.0 mi North 13.8 mph 19.6 mph N/A   Clear
5:56 PM 11.1 °F -3.2 °F -4.9 °F 49% 30.03 in 10.0 mi North 11.5 mph 17.3 mph N/A   Clear
6:15 PM 10.8 °F -1.1 °F -4.9 °F 49% 30.03 in 10.0 mi North 8.1 mph - N/A   Clear
6:36 PM 10.2 °F -1.7 °F -4.7 °F 51% 30.04 in 10.0 mi NNW 8.1 mph - N/A   Clear
6:55 PM 10.2 °F -1.7 °F -4.7 °F 51% 30.05 in 10.0 mi North 8.1 mph - N/A   Clear
7:15 PM 9.5 °F -1.5 °F -5.3 °F 51% 30.06 in 10.0 mi North 6.9 mph - N/A   Clear
7:36 PM 8.4 °F -2.8 °F -3.3 °F 59% 30.06 in 10.0 mi NNW 6.9 mph - N/A   Clear
7:55 PM 7.5 °F -3.9 °F -2.6 °F 63% 30.07 in 10.0 mi NNW 6.9 mph - N/A   Clear
8:16 PM 6.8 °F -5.9 °F -3.3 °F 63% 30.08 in 10.0 mi NNW 8.1 mph - N/A   Clear
8:36 PM 6.3 °F -6.5 °F -4.0 °F 63% 30.08 in 10.0 mi NNW 8.1 mph - N/A   Clear
8:55 PM 5.9 °F -5.8 °F -4.0 °F 64% 30.09 in 10.0 mi NNW 6.9 mph - N/A   Clear
9:16 PM 5.4 °F -7.6 °F -4.0 °F 65% 30.09 in 10.0 mi NW 8.1 mph - N/A   Clear
9:35 PM 5.0 °F -6.9 °F -4.0 °F 66% 30.10 in 10.0 mi NNW 6.9 mph - N/A   Clear
9:55 PM 4.5 °F -6.3 °F -3.6 °F 69% 30.10 in 10.0 mi NNW 5.8 mph - N/A   Clear
10:16 PM 3.7 °F -5.5 °F -4.0 °F 70% 30.11 in 10.0 mi NW 4.6 mph - N/A   Clear
10:35 PM 3.2 °F -6.2 °F -4.0 °F 72% 30.11 in 10.0 mi NNW 4.6 mph - N/A   Clear
10:56 PM 2.7 °F -6.8 °F -4.0 °F 74% 30.11 in 10.0 mi NW 4.6 mph - N/A   Clear
11:15 PM 2.3 °F -8.8 °F -3.6 °F 76% 30.11 in 10.0 mi NW 5.8 mph - N/A   Clear
11:36 PM 2.1 °F -9.0 °F -3.3 °F 78% 30.11 in 10.0 mi NW 5.8 mph - N/A   Clear
11:56 PM 1.8 °F -7.8 °F -3.3 °F 79% 30.10 in 10.0 mi NW 4.6 mph - N/A   Clear